Monday, October 15, 2018, 11:39 PM EDT
Back to Local

KIPT, Williamsport-lycoming County

Location: Montoursville, PA, United States Lat: 41.25
Local Time: 11:39 PM EDT ( 3:39 GMT) Lon: -76.917
Time Zone: US/Eastern Elev: 528 ft

Show me the last for .
Show Decoded

2018-10-15 22:54 METAR KIPT 160254Z AUTO 28010KT 10SM SCT040 BKN055 13/07 A3001 RMK AO2 SLP163
                 60000 T01280067 53033 =
2018-10-15 21:54 METAR KIPT 160154Z 28009G17KT 10SM SCT027 BKN037 OVC044 14/10 A2997 RMK AO2
                 RAB32E45 SLP149 P0000 T01390100 =
2018-10-15 20:54 METAR KIPT 160054Z 28006KT 10SM OVC065 14/12 A2993 RMK AO2 RAB19E35 SLP136 P0000
                 T01440117 =
2018-10-15 19:54 METAR KIPT 152354Z 25006KT 10SM FEW026 BKN032 OVC040 15/13 A2991 RMK AO2 SLP129
                 60001 T01500128 10172 20139 51022 =
2018-10-15 19:51 METAR KIPT 152351Z 25006KT 10SM FEW026 BKN034 OVC040 15/13 A2991 RMK AO2 =
2018-10-15 19:20 METAR KIPT 152320Z 28009KT 10SM BKN026 OVC034 14/13 A2990 RMK AO2 PRESRR
                 T01440133 =
2018-10-15 18:54 METAR KIPT 152254Z 28007KT 10SM FEW026 BKN036 OVC110 14/13 A2988 RMK AO2 RAE41
                 SLP117 P0001 T01440133 =
2018-10-15 17:54 METAR KIPT 152154Z 28014G19KT 5SM -RA BR FEW025 OVC032 14/12 A2985 RMK AO2 RAB47
                 PRESRR SLP109 P0000 T01440122 =
2018-10-15 16:54 METAR KIPT 152054Z 27006KT 10SM BKN035 OVC045 15/12 A2983 RMK AO2 SLP100
                 T01500122 56025 =
2018-10-15 15:54 METAR KIPT 151954Z 26003KT 10SM SCT015 BKN041 OVC048 16/13 A2985 RMK AO2 SLP108
                 T01610133 =
2018-10-15 15:25 METAR KIPT 151925Z 25004KT 10SM BKN015 BKN040 OVC050 16/13 A2986 RMK AO2
                 T01610133 =
2018-10-15 14:54 METAR KIPT 151854Z 30004KT 10SM FEW015 OVC040 14/12 A2987 RMK AO2 SLP115
                 T01440122 =
2018-10-15 13:54 METAR KIPT 151754Z VRB05KT 10SM FEW015 BKN023 OVC060 16/13 A2990 RMK AO2 SLP126
                 60000 T01610128 10161 20117 56023 =
2018-10-15 12:54 METAR KIPT 151654Z 08010G14KT 10SM SCT015 BKN022 OVC043 15/13 A2992 RMK AO2
                 RAB1556E06 SLP131 P0000 T01500128 =
2018-10-15 11:54 METAR KIPT 151554Z 08008KT 8SM BKN013 OVC020 14/12 A2995 RMK AO2 SLP142
                 T01390117 =
2018-10-15 11:44 METAR KIPT 151544Z 09009KT 10SM BKN015 OVC020 14/12 A2995 RMK AO2 T01390117 =
2018-10-15 11:27 METAR KIPT 151527Z 07004KT 10SM BKN014 OVC021 14/12 A2996 RMK AO2 T01390117 =
2018-10-15 10:54 METAR KIPT 151454Z 07010KT 10SM BKN016 OVC022 14/12 A2997 RMK AO2 SLP150 60000
                 T01390117 58013 =
2018-10-15 09:54 METAR KIPT 151354Z 06012KT 6SM BR OVC013 12/11 A2999 RMK AO2 RAB29E39 SLP157
                 P0000 T01220111 =
2018-10-15 09:21 METAR KIPT 151321Z 09004KT 9SM OVC011 12/11 A3001 RMK AO2 T01170106 =
2018-10-15 08:54 METAR KIPT 151254Z 09009G18KT 9SM OVC009 12/11 A3001 RMK AO2 CIG 006V011 SLP163
                 T01220106 =
2018-10-15 07:54 METAR KIPT 151154Z 06009G14KT 8SM OVC007 11/10 A3001 RMK AO2 RAB09E29 SLP163
                 P0000 60006 70006 T01110100 10111 20083 58016 =
2018-10-15 06:54 METAR KIPT 151054Z 06008KT 8SM OVC009 11/09 A3003 RMK AO2 RAB09E40 SLP169 P0003
                 T01060094 =
2018-10-15 05:54 METAR KIPT 150954Z AUTO 06005KT 8SM OVC007 11/09 A3004 RMK AO2 RAB25E34 SLP174
                 P0000 T01060094 $ =
2018-10-15 04:54 METAR KIPT 150854Z AUTO 05008G19KT 8SM OVC008 10/09 A3006 RMK AO2 RAE03 SLP179
                 P0000 60003 T01000089 58017 $ =
2018-10-15 04:36 METAR KIPT 150836Z AUTO 08006KT 7SM OVC009 10/09 A3006 RMK AO2 RAE03 CIG 007V012
                 P0000 T01000089 $ =
2018-10-15 03:54 METAR KIPT 150754Z AUTO 08005KT 6SM -RA BR OVC010 09/08 A3007 RMK AO2 SLP185
                 P0003 T00890078 $ =
2018-10-15 02:54 METAR KIPT 150654Z AUTO 25003KT 10SM -RA OVC014 08/07 A3011 RMK AO2 RAB28 SLP197
                 P0000 T00830072 $ =
2018-10-15 02:52 METAR KIPT 150652Z AUTO 23003KT 10SM -RA OVC014 08/07 A3011 RMK AO2 RAB28 P0000
                 $ =
2018-10-15 02:16 METAR KIPT 150616Z AUTO 00000KT 10SM OVC015 09/07 A3012 RMK AO2 T00890067 $ =
2018-10-15 01:54 METAR KIPT 150554Z AUTO 00000KT 10SM OVC014 09/07 A3013 RMK AO2 SLP202 T00890067
                 10100 20067 58017 $ =
2018-10-15 01:03 METAR KIPT 150503Z AUTO 00000KT 10SM OVC014 09/07 A3015 RMK AO2 T00890067 $ =
2018-10-15 00:54 METAR KIPT 150454Z AUTO 32003KT 10SM OVC015 08/07 A3015 RMK AO2 SLP211 T00830067
                 401280039 $ =
2018-10-15 00:12 METAR KIPT 150412Z AUTO 00000KT 10SM BKN016 OVC050 08/06 A3015 RMK AO2 T00830061
                 $ =
2018-10-14 23:54 METAR KIPT 150354Z AUTO 00000KT 10SM FEW017 OVC050 08/06 A3015 RMK AO2 SLP213
                 T00780061 $ =

Support USWX by starting your Amazon purchase here.